Emerywood, North Carolina
Current Conditions -  °F | °C
As of 11:54 PM on Monday 20 Oct 2014 (Local Time) from KGSO Reporting Station
Broken Clouds Broken Clouds  
Wind Chill: 60°   Ceiling: 10000
Heat Index: 60°   Visibility: 10mi
Dew Point: 49°   Wind: 9mph
Humidity: 67%   Direction: 240°WSW
Pressure: 29.98"   Gusts: NA
Location:  35.9619°N, 80.0393°W
Report Text: KGSO 210354Z 24008KT 10SM BKN100 16/09 A2998 RMK AO2 SLP146 T01560094
Loading
Personal Weather Stations






























Interactive Weather Map
Tropical Storm Tracking
New forecast layout! Learn more

10-Day Weather Forecast

Advertisements
Track Severe Weather on mobile